sensor_id;sensor_type;location;lat;lon;timestamp;pressure;altitude;pressure_sealevel;temperature;humidity
71504;BME280;59323;50.874;7.028;2022-12-07T00:01:39;101448.84;;;3.98;100.00
71504;BME280;59323;50.874;7.028;2022-12-07T00:04:07;101434.00;;;3.87;100.00
71504;BME280;59323;50.874;7.028;2022-12-07T00:06:41;101452.53;;;4.02;100.00
71504;BME280;59323;50.874;7.028;2022-12-07T00:09:13;101446.47;;;3.97;100.00
71504;BME280;59323;50.874;7.028;2022-12-07T00:11:39;101432.72;;;3.98;100.00
71504;BME280;59323;50.874;7.028;2022-12-07T00:14:07;101434.91;;;3.96;100.00
71504;BME280;59323;50.874;7.028;2022-12-07T00:16:33;101433.03;;;3.97;100.00
71504;BME280;59323;50.874;7.028;2022-12-07T00:19:03;101439.38;;;4.01;100.00
71504;BME280;59323;50.874;7.028;2022-12-07T00:21:35;101437.59;;;3.96;100.00
71504;BME280;59323;50.874;7.028;2022-12-07T00:24:01;101448.13;;;4.06;100.00
71504;BME280;59323;50.874;7.028;2022-12-07T00:26:30;101436.22;;;3.99;100.00
71504;BME280;59323;50.874;7.028;2022-12-07T00:29:02;101433.41;;;4.04;100.00
71504;BME280;59323;50.874;7.028;2022-12-07T00:31:38;101439.78;;;4.08;100.00
71504;BME280;59323;50.874;7.028;2022-12-07T00:34:11;101421.47;;;3.96;100.00
71504;BME280;59323;50.874;7.028;2022-12-07T00:36:37;101421.47;;;3.96;100.00
71504;BME280;59323;50.874;7.028;2022-12-07T00:39:02;101418.19;;;3.99;100.00
71504;BME280;59323;50.874;7.028;2022-12-07T00:41:31;101421.56;;;4.05;100.00
71504;BME280;59323;50.874;7.028;2022-12-07T00:43:59;101417.88;;;4.01;100.00
71504;BME280;59323;50.874;7.028;2022-12-07T00:46:31;101420.25;;;4.02;100.00
71504;BME280;59323;50.874;7.028;2022-12-07T00:48:56;101416.59;;;3.98;100.00
71504;BME280;59323;50.874;7.028;2022-12-07T00:51:25;101416.28;;;4.00;100.00
71504;BME280;59323;50.874;7.028;2022-12-07T00:53:51;101424.84;;;4.02;100.00
71504;BME280;59323;50.874;7.028;2022-12-07T00:56:24;101410.53;;;3.93;100.00
71504;BME280;59323;50.874;7.028;2022-12-07T00:58:54;101407.13;;;3.87;100.00
71504;BME280;59323;50.874;7.028;2022-12-07T01:01:24;101412.81;;;3.86;100.00
71504;BME280;59323;50.874;7.028;2022-12-07T01:03:53;101417.50;;;3.94;100.00
71504;BME280;59323;50.874;7.028;2022-12-07T01:06:20;101413.72;;;3.95;100.00
71504;BME280;59323;50.874;7.028;2022-12-07T01:08:49;101406.56;;;3.90;100.00
71504;BME280;59323;50.874;7.028;2022-12-07T01:11:22;101397.16;;;3.88;100.00
71504;BME280;59323;50.874;7.028;2022-12-07T01:13:55;101406.44;;;3.95;100.00
71504;BME280;59323;50.874;7.028;2022-12-07T01:16:28;101409.91;;;3.96;100.00
71504;BME280;59323;50.874;7.028;2022-12-07T01:18:55;101418.97;;;4.00;100.00
71504;BME280;59323;50.874;7.028;2022-12-07T01:21:28;101411.28;;;4.07;100.00
71504;BME280;59323;50.874;7.028;2022-12-07T01:23:54;101417.47;;;4.07;100.00
71504;BME280;59323;50.874;7.028;2022-12-07T01:26:23;101416.97;;;4.05;100.00
71504;BME280;59323;50.874;7.028;2022-12-07T01:28:57;101418.44;;;4.11;100.00
71504;BME280;59323;50.874;7.028;2022-12-07T01:31:25;101422.72;;;4.12;100.00
71504;BME280;59323;50.874;7.028;2022-12-07T01:33:58;101417.47;;;4.07;100.00
71504;BME280;59323;50.874;7.028;2022-12-07T01:36:35;101419.84;;;4.09;100.00
71504;BME280;59323;50.874;7.028;2022-12-07T01:39:12;101414.22;;;4.19;100.00
71504;BME280;59323;50.874;7.028;2022-12-07T01:41:55;101414.72;;;4.21;100.00
71504;BME280;59323;50.874;7.028;2022-12-07T01:44:28;101411.00;;;4.31;100.00
71504;BME280;59323;50.874;7.028;2022-12-07T01:47:04;101415.28;;;4.32;100.00
71504;BME280;59323;50.874;7.028;2022-12-07T01:49:40;101424.03;;;4.37;100.00
71504;BME280;59323;50.874;7.028;2022-12-07T01:54:44;101412.59;;;4.32;100.00
71504;BME280;59323;50.874;7.028;2022-12-07T01:57:16;101410.19;;;4.30;100.00
71504;BME280;59323;50.874;7.028;2022-12-07T01:59:48;101412.22;;;4.25;100.00
71504;BME280;59323;50.874;7.028;2022-12-07T02:02:20;101403.16;;;4.21;100.00
71504;BME280;59323;50.874;7.028;2022-12-07T02:04:52;101396.19;;;4.20;100.00
71504;BME280;59323;50.874;7.028;2022-12-07T02:07:28;101399.88;;;4.24;100.00
71504;BME280;59323;50.874;7.028;2022-12-07T02:09:54;101404.16;;;4.25;100.00
71504;BME280;59323;50.874;7.028;2022-12-07T02:12:30;101399.19;;;4.18;100.00
71504;BME280;59323;50.874;7.028;2022-12-07T02:14:56;101398.88;;;4.20;100.00
71504;BME280;59323;50.874;7.028;2022-12-07T02:17:30;101396.56;;;4.27;100.00
71504;BME280;59323;50.874;7.028;2022-12-07T02:27:16;101387.28;;;4.33;100.00
71504;BME280;59323;50.874;7.028;2022-12-07T02:30:17;101394.19;;;4.25;100.00
71504;BME280;59323;50.874;7.028;2022-12-07T02:33:31;101405.19;;;4.37;100.00
71504;BME280;59323;50.874;7.028;2022-12-07T02:36:10;101392.16;;;4.31;100.00
71504;BME280;59323;50.874;7.028;2022-12-07T02:41:47;101390.88;;;4.28;100.00
71504;BME280;59323;50.874;7.028;2022-12-07T02:44:21;101392.72;;;4.19;100.00
71504;BME280;59323;50.874;7.028;2022-12-07T02:47:01;101381.47;;;4.17;100.00
71504;BME280;59323;50.874;7.028;2022-12-07T02:49:32;101383.53;;;4.20;100.00
71504;BME280;59323;50.874;7.028;2022-12-07T02:51:58;101387.34;;;4.19;100.00
71504;BME280;59323;50.874;7.028;2022-12-07T02:54:23;101381.97;;;4.19;100.00
71504;BME280;59323;50.874;7.028;2022-12-07T02:57:26;101389.41;;;4.22;100.00
71504;BME280;59323;50.874;7.028;2022-12-07T03:00:27;101381.47;;;4.17;100.00
71504;BME280;59323;50.874;7.028;2022-12-07T03:02:58;101381.34;;;4.22;100.00
71504;BME280;59323;50.874;7.028;2022-12-07T03:11:06;101380.19;;;4.14;100.00
71504;BME280;59323;50.874;7.028;2022-12-07T03:13:49;101389.72;;;4.21;100.00
71504;BME280;59323;50.874;7.028;2022-12-07T03:16:16;101394.00;;;4.22;100.00
71504;BME280;59323;50.874;7.028;2022-12-07T03:19:15;101378.72;;;4.08;100.00
71504;BME280;59323;50.874;7.028;2022-12-07T03:22:03;101388.91;;;4.20;100.00
71504;BME280;59323;50.874;7.028;2022-12-07T03:24:35;101383.84;;;4.19;100.00
71504;BME280;59323;50.874;7.028;2022-12-07T03:27:17;101396.06;;;4.25;100.00
71504;BME280;59323;50.874;7.028;2022-12-07T03:29:58;101376.69;;;4.14;100.00
71504;BME280;59323;50.874;7.028;2022-12-07T03:32:35;101383.84;;;4.19;100.00
71504;BME280;59323;50.874;7.028;2022-12-07T03:35:03;101392.47;;;4.29;100.00
71504;BME280;59323;50.874;7.028;2022-12-07T03:37:38;101382.31;;;4.26;100.00
71504;BME280;59323;50.874;7.028;2022-12-07T03:42:51;101389.78;;;4.29;100.00
71504;BME280;59323;50.874;7.028;2022-12-07T03:45:34;101376.63;;;4.28;100.00
71504;BME280;59323;50.874;7.028;2022-12-07T03:50:54;101388.44;;;4.40;100.00
71504;BME280;59323;50.874;7.028;2022-12-07T03:54:05;101379.03;;;4.29;100.00
71504;BME280;59323;50.874;7.028;2022-12-07T03:56:39;101382.69;;;4.33;100.00
71504;BME280;59323;50.874;7.028;2022-12-07T03:59:09;101373.34;;;4.31;100.00
71504;BME280;59323;50.874;7.028;2022-12-07T04:01:36;101389.03;;;4.37;100.00
71504;BME280;59323;50.874;7.028;2022-12-07T04:04:12;101381.28;;;4.36;100.00
71504;BME280;59323;50.874;7.028;2022-12-07T04:06:37;101378.09;;;4.34;100.00
71504;BME280;59323;50.874;7.028;2022-12-07T04:09:03;101385.88;;;4.35;100.00
71504;BME280;59323;50.874;7.028;2022-12-07T04:11:46;101375.47;;;4.20;100.00
71504;BME280;59323;50.874;7.028;2022-12-07T04:14:11;101381.84;;;4.24;100.00
71504;BME280;59323;50.874;7.028;2022-12-07T04:16:55;101397.66;;;4.26;100.00
71504;BME280;59323;50.874;7.028;2022-12-07T04:19:32;101379.38;;;4.14;100.00
71504;BME280;59323;50.874;7.028;2022-12-07T04:22:13;101383.53;;;4.20;100.00
71504;BME280;59323;50.874;7.028;2022-12-07T04:24:39;101393.69;;;4.23;100.00
71504;BME280;59323;50.874;7.028;2022-12-07T04:27:04;101386.13;;;4.25;100.00
71504;BME280;59323;50.874;7.028;2022-12-07T04:29:35;101395.53;;;4.36;100.00
71504;BME280;59323;50.874;7.028;2022-12-07T04:32:01;101381.91;;;4.33;100.00
71504;BME280;59323;50.874;7.028;2022-12-07T04:34:26;101389.16;;;4.32;100.00
71504;BME280;59323;50.874;7.028;2022-12-07T04:36:52;101371.25;;;4.28;100.00
71504;BME280;59323;50.874;7.028;2022-12-07T04:39:25;101376.22;;;4.34;100.00
71504;BME280;59323;50.874;7.028;2022-12-07T04:41:51;101382.81;;;4.28;100.00
71504;BME280;59323;50.874;7.028;2022-12-07T04:44:18;101375.03;;;4.27;100.00
71504;BME280;59323;50.874;7.028;2022-12-07T04:46:44;101379.16;;;4.24;100.00
71504;BME280;59323;50.874;7.028;2022-12-07T04:49:28;101381.22;;;4.27;100.00
71504;BME280;59323;50.874;7.028;2022-12-07T04:51:54;101364.84;;;4.15;100.00
71504;BME280;59323;50.874;7.028;2022-12-07T04:54:22;101369.00;;;4.21;100.00
71504;BME280;59323;50.874;7.028;2022-12-07T04:56:48;101364.41;;;4.22;100.00
71504;BME280;59323;50.874;7.028;2022-12-07T04:59:15;101373.28;;;4.22;100.00
71504;BME280;59323;50.874;7.028;2022-12-07T05:01:44;101375.59;;;4.15;100.00
71504;BME280;59323;50.874;7.028;2022-12-07T05:04:15;101375.53;;;4.06;100.00
71504;BME280;59323;50.874;7.028;2022-12-07T05:06:41;101360.91;;;3.99;100.00
71504;BME280;59323;50.874;7.028;2022-12-07T05:09:07;101374.25;;;4.04;100.00
71504;BME280;59323;50.874;7.028;2022-12-07T05:11:32;101371.69;;;3.99;100.00
71504;BME280;59323;50.874;7.028;2022-12-07T05:16:32;101376.81;;;4.09;100.00
71504;BME280;59323;50.874;7.028;2022-12-07T05:19:04;101397.41;;;4.13;100.00
71504;BME280;59323;50.874;7.028;2022-12-07T05:21:30;101385.91;;;3.99;100.00
71504;BME280;59323;50.874;7.028;2022-12-07T05:24:11;101399.84;;;4.01;100.00
71504;BME280;59323;50.874;7.028;2022-12-07T05:32:52;101369.00;;;3.99;100.00
71504;BME280;59323;50.874;7.028;2022-12-07T05:35:29;101378.16;;;3.98;100.00
71504;BME280;59323;50.874;7.028;2022-12-07T05:37:55;101371.09;;;3.88;100.00
71504;BME280;59323;50.874;7.028;2022-12-07T05:42:58;101376.47;;;3.88;100.00
71504;BME280;59323;50.874;7.028;2022-12-07T05:45:24;101379.06;;;3.93;100.00
71504;BME280;59323;50.874;7.028;2022-12-07T05:47:49;101369.31;;;3.83;100.00
71504;BME280;59323;50.874;7.028;2022-12-07T05:50:14;101386.03;;;3.94;100.00
71504;BME280;59323;50.874;7.028;2022-12-07T05:52:43;101389.31;;;3.91;100.00
71504;BME280;59323;50.874;7.028;2022-12-07T05:55:08;101392.19;;;3.95;100.00
71504;BME280;59323;50.874;7.028;2022-12-07T05:57:33;101394.78;;;4.00;100.00
71504;BME280;59323;50.874;7.028;2022-12-07T05:59:59;101391.59;;;3.98;100.00
71504;BME280;59323;50.874;7.028;2022-12-07T06:02:24;101387.56;;;4.09;100.00
71504;BME280;59323;50.874;7.028;2022-12-07T06:04:49;101393.88;;;4.04;100.00
71504;BME280;59323;50.874;7.028;2022-12-07T06:07:15;101384.41;;;4.07;100.00
71504;BME280;59323;50.874;7.028;2022-12-07T06:09:41;101361.72;;;3.99;100.00
71504;BME280;59323;50.874;7.028;2022-12-07T06:12:12;101363.72;;;3.94;100.00
71504;BME280;59323;50.874;7.028;2022-12-07T06:14:57;101356.75;;;3.93;100.00
71504;BME280;59323;50.874;7.028;2022-12-07T06:17:22;101358.44;;;3.89;100.00
71504;BME280;59323;50.874;7.028;2022-12-07T06:19:48;101367.91;;;3.86;100.00
71504;BME280;59323;50.874;7.028;2022-12-07T06:22:13;101380.25;;;3.87;100.00
71504;BME280;59323;50.874;7.028;2022-12-07T06:24:39;101389.03;;;3.93;100.00
71504;BME280;59323;50.874;7.028;2022-12-07T06:27:05;101385.44;;;3.83;100.00
71504;BME280;59323;50.874;7.028;2022-12-07T06:29:31;101386.63;;;3.77;100.00
71504;BME280;59323;50.874;7.028;2022-12-07T06:31:56;101380.88;;;3.70;100.00
71504;BME280;59323;50.874;7.028;2022-12-07T06:34:23;101386.75;;;3.72;100.00
71504;BME280;59323;50.874;7.028;2022-12-07T06:36:50;101375.13;;;3.63;100.00
71504;BME280;59323;50.874;7.028;2022-12-07T06:39:25;101390.75;;;3.61;100.00
71504;BME280;59323;50.874;7.028;2022-12-07T06:41:50;101376.34;;;3.57;100.00
71504;BME280;59323;50.874;7.028;2022-12-07T06:44:20;101394.03;;;3.58;100.00
71504;BME280;59323;50.874;7.028;2022-12-07T06:46:46;101390.97;;;3.51;100.00
71504;BME280;59323;50.874;7.028;2022-12-07T06:49:11;101389.50;;;3.45;100.00
71504;BME280;59323;50.874;7.028;2022-12-07T06:51:39;101398.63;;;3.44;100.00
71504;BME280;59323;50.874;7.028;2022-12-07T06:54:12;101391.69;;;3.43;100.00
71504;BME280;59323;50.874;7.028;2022-12-07T06:56:38;101382.44;;;3.35;100.00
71504;BME280;59323;50.874;7.028;2022-12-07T06:59:04;101388.09;;;3.34;100.00
71504;BME280;59323;50.874;7.028;2022-12-07T07:01:30;101401.22;;;3.35;100.00
71504;BME280;59323;50.874;7.028;2022-12-07T07:03:56;101405.50;;;3.36;100.00
71504;BME280;59323;50.874;7.028;2022-12-07T07:06:21;101400.72;;;3.33;100.00
71504;BME280;59323;50.874;7.028;2022-12-07T07:08:46;101401.84;;;3.32;100.00
71504;BME280;59323;50.874;7.028;2022-12-07T07:11:12;101406.69;;;3.44;100.00
71504;BME280;59323;50.874;7.028;2022-12-07T07:13:37;101393.47;;;3.34;100.00
71504;BME280;59323;50.874;7.028;2022-12-07T07:16:03;101401.03;;;3.32;100.00
71504;BME280;59323;50.874;7.028;2022-12-07T07:18:32;101413.38;;;3.46;100.00
71504;BME280;59323;50.874;7.028;2022-12-07T07:20:58;101404.22;;;3.34;100.00
71504;BME280;59323;50.874;7.028;2022-12-07T07:23:25;101401.63;;;3.29;100.00
71504;BME280;59323;50.874;7.028;2022-12-07T07:25:51;101408.00;;;3.33;100.00
71504;BME280;59323;50.874;7.028;2022-12-07T07:28:16;101400.34;;;3.26;100.00
71504;BME280;59323;50.874;7.028;2022-12-07T07:30:42;101409.38;;;3.30;100.00
71504;BME280;59323;50.874;7.028;2022-12-07T07:33:09;101415.06;;;3.29;100.00
71504;BME280;59323;50.874;7.028;2022-12-07T07:35:34;101415.75;;;3.34;100.00
71504;BME280;59323;50.874;7.028;2022-12-07T07:38:00;101406.22;;;3.28;100.00
71504;BME280;59323;50.874;7.028;2022-12-07T07:40:26;101400.59;;;3.25;100.00
71504;BME280;59323;50.874;7.028;2022-12-07T07:42:54;101400.03;;;3.28;100.00
71504;BME280;59323;50.874;7.028;2022-12-07T07:45:21;101411.78;;;3.32;100.00
71504;BME280;59323;50.874;7.028;2022-12-07T07:47:47;101412.06;;;3.30;100.00
71504;BME280;59323;50.874;7.028;2022-12-07T07:50:13;101413.38;;;3.33;100.00
71504;BME280;59323;50.874;7.028;2022-12-07T07:52:39;101398.75;;;3.25;100.00
71504;BME280;59323;50.874;7.028;2022-12-07T07:55:07;101409.69;;;3.29;100.00
71504;BME280;59323;50.874;7.028;2022-12-07T07:57:36;101413.66;;;3.31;100.00
71504;BME280;59323;50.874;7.028;2022-12-07T08:00:11;101405.41;;;3.28;100.00
71504;BME280;59323;50.874;7.028;2022-12-07T08:02:40;101412.47;;;3.37;100.00
71504;BME280;59323;50.874;7.028;2022-12-07T08:05:08;101419.13;;;3.40;100.00
71504;BME280;59323;50.874;7.028;2022-12-07T08:07:33;101428.28;;;3.39;100.00
71504;BME280;59323;50.874;7.028;2022-12-07T08:09:59;101415.75;;;3.34;100.00
71504;BME280;59323;50.874;7.028;2022-12-07T08:12:24;101415.47;;;3.36;100.00
71504;BME280;59323;50.874;7.028;2022-12-07T08:14:50;101411.06;;;3.40;100.00
71504;BME280;59323;50.874;7.028;2022-12-07T08:17:15;101416.25;;;3.50;100.00
71504;BME280;59323;50.874;7.028;2022-12-07T08:19:41;101419.94;;;3.54;100.00
71504;BME280;59323;50.874;7.028;2022-12-07T08:22:09;101415.03;;;3.56;100.00
71504;BME280;59323;50.874;7.028;2022-12-07T08:24:38;101404.59;;;3.55;100.00
71504;BME280;59323;50.874;7.028;2022-12-07T08:27:03;101406.38;;;3.59;100.00
71504;BME280;59323;50.874;7.028;2022-12-07T08:29:29;101410.38;;;3.62;100.00
71504;BME280;59323;50.874;7.028;2022-12-07T08:31:54;101410.84;;;3.64;100.00
71504;BME280;59323;50.874;7.028;2022-12-07T08:34:20;101413.25;;;3.65;100.00
71504;BME280;59323;50.874;7.028;2022-12-07T08:36:48;101424.19;;;3.69;100.00
71504;BME280;59323;50.874;7.028;2022-12-07T08:39:16;101418.50;;;3.70;100.00
71504;BME280;59323;50.874;7.028;2022-12-07T08:41:42;101422.88;;;3.80;100.00
71504;BME280;59323;50.874;7.028;2022-12-07T08:44:07;101424.47;;;3.81;100.00
71504;BME280;59323;50.874;7.028;2022-12-07T08:46:37;101428.44;;;3.83;100.00
71504;BME280;59323;50.874;7.028;2022-12-07T08:49:16;101431.13;;;3.83;100.00
71504;BME280;59323;50.874;7.028;2022-12-07T08:51:46;101420.69;;;3.82;100.00
71504;BME280;59323;50.874;7.028;2022-12-07T08:54:16;101414.63;;;3.90;100.00
71504;BME280;59323;50.874;7.028;2022-12-07T08:56:44;101425.22;;;4.09;100.00
71504;BME280;59323;50.874;7.028;2022-12-07T08:59:12;101424.63;;;4.12;100.00
71504;BME280;59323;50.874;7.028;2022-12-07T09:01:39;101425.78;;;4.20;100.00
71504;BME280;59323;50.874;7.028;2022-12-07T09:04:05;101422.50;;;4.23;100.00
71504;BME280;59323;50.874;7.028;2022-12-07T09:06:30;101415.81;;;4.20;100.00
71504;BME280;59323;50.874;7.028;2022-12-07T09:08:58;101408.25;;;4.22;100.00
71504;BME280;59323;50.874;7.028;2022-12-07T09:11:25;101423.22;;;4.37;100.00
71504;BME280;59323;50.874;7.028;2022-12-07T09:13:53;101412.47;;;4.37;100.00
71504;BME280;59323;50.874;7.028;2022-12-07T09:16:21;101415.78;;;4.34;100.00
71504;BME280;59323;50.874;7.028;2022-12-07T09:18:47;101415.94;;;4.37;100.00
71504;BME280;59323;50.874;7.028;2022-12-07T09:21:12;101421.81;;;4.39;100.00
71504;BME280;59323;50.874;7.028;2022-12-07T09:23:37;101424.50;;;4.39;100.00
71504;BME280;59323;50.874;7.028;2022-12-07T09:26:04;101425.00;;;4.41;100.00
71504;BME280;59323;50.874;7.028;2022-12-07T09:28:32;101430.03;;;4.57;100.00
71504;BME280;59323;50.874;7.028;2022-12-07T09:30:58;101430.41;;;4.64;100.00
71504;BME280;59323;50.874;7.028;2022-12-07T09:33:24;101436.50;;;4.78;100.00
71504;BME280;59323;50.874;7.028;2022-12-07T09:35:51;101442.25;;;4.85;100.00
71504;BME280;59323;50.874;7.028;2022-12-07T09:38:17;101440.66;;;4.84;100.00
71504;BME280;59323;50.874;7.028;2022-12-07T09:40:43;101436.75;;;4.90;100.00
71504;BME280;59323;50.874;7.028;2022-12-07T09:43:17;101432.63;;;4.93;100.00
71504;BME280;59323;50.874;7.028;2022-12-07T09:45:44;101435.16;;;4.89;100.00
71504;BME280;59323;50.874;7.028;2022-12-07T09:48:18;101438.19;;;4.96;100.00
71504;BME280;59323;50.874;7.028;2022-12-07T09:50:46;101433.44;;;4.93;100.00
71504;BME280;59323;50.874;7.028;2022-12-07T09:53:20;101431.84;;;4.92;100.00
71504;BME280;59323;50.874;7.028;2022-12-07T09:55:47;101429.31;;;4.96;100.00
71504;BME280;59323;50.874;7.028;2022-12-07T09:58:21;101428.03;;;4.93;100.00
71504;BME280;59323;50.874;7.028;2022-12-07T10:00:50;101429.16;;;4.92;100.00
71504;BME280;59323;50.874;7.028;2022-12-07T10:03:18;101427.69;;;4.86;100.00
71504;BME280;59323;50.874;7.028;2022-12-07T10:05:48;101420.88;;;4.89;100.00
71504;BME280;59323;50.874;7.028;2022-12-07T10:08:17;101415.19;;;4.90;100.00
71504;BME280;59323;50.874;7.028;2022-12-07T10:10:52;101402.53;;;4.91;100.00
71504;BME280;59323;50.874;7.028;2022-12-07T10:13:42;101406.50;;;4.93;100.00
71504;BME280;59323;50.874;7.028;2022-12-07T10:18:50;101395.94;;;5.05;100.00
71504;BME280;59323;50.874;7.028;2022-12-07T10:21:26;101392.78;;;5.12;100.00
71504;BME280;59323;50.874;7.028;2022-12-07T10:24:16;101402.06;;;5.28;100.00
71504;BME280;59323;50.874;7.028;2022-12-07T10:26:51;101394.00;;;5.28;100.00
71504;BME280;59323;50.874;7.028;2022-12-07T10:31:54;101394.34;;;5.44;99.79
71504;BME280;59323;50.874;7.028;2022-12-07T10:34:30;101386.75;;;5.46;99.12
71504;BME280;59323;50.874;7.028;2022-12-07T10:39:50;101375.47;;;5.44;99.42
71504;BME280;59323;50.874;7.028;2022-12-07T10:42:25;101381.03;;;5.48;99.17
71504;BME280;59323;50.874;7.028;2022-12-07T10:45:17;101382.47;;;5.45;97.26
71504;BME280;59323;50.874;7.028;2022-12-07T11:04:13;101367.72;;;5.51;97.15
71504;BME280;59323;50.874;7.028;2022-12-07T11:09:50;101353.00;;;5.57;98.62
71504;BME280;59323;50.874;7.028;2022-12-07T11:12:31;101346.19;;;5.68;96.51
71504;BME280;59323;50.874;7.028;2022-12-07T11:15:39;101349.84;;;5.81;95.74
71504;BME280;59323;50.874;7.028;2022-12-07T11:18:35;101347.94;;;5.82;95.33
71504;BME280;59323;50.874;7.028;2022-12-07T11:21:10;101327.31;;;5.77;93.86
71504;BME280;59323;50.874;7.028;2022-12-07T11:24:01;101340.31;;;5.84;94.91
71504;BME280;59323;50.874;7.028;2022-12-07T11:37:28;101322.72;;;5.78;96.73
71504;BME280;59323;50.874;7.028;2022-12-07T11:40:00;101316.22;;;5.79;94.44
71504;BME280;59323;50.874;7.028;2022-12-07T11:42:51;101310.34;;;5.77;94.29
71504;BME280;59323;50.874;7.028;2022-12-07T11:45:27;101305.75;;;5.77;95.93
71504;BME280;59323;50.874;7.028;2022-12-07T11:48:14;101307.66;;;5.77;95.84
71504;BME280;59323;50.874;7.028;2022-12-07T11:53:20;101303.53;;;5.88;96.15
71504;BME280;59323;50.874;7.028;2022-12-07T11:55:57;101293.53;;;5.80;94.57
71504;BME280;59323;50.874;7.028;2022-12-07T12:04:02;101284.00;;;5.73;91.92
71504;BME280;59323;50.874;7.028;2022-12-07T12:06:31;101292.88;;;5.83;91.23
71504;BME280;59323;50.874;7.028;2022-12-07T12:09:06;101297.16;;;5.84;91.29
71504;BME280;59323;50.874;7.028;2022-12-07T12:12:05;101299.59;;;5.85;90.28
71504;BME280;59323;50.874;7.028;2022-12-07T12:15:16;101281.63;;;5.72;91.08
71504;BME280;59323;50.874;7.028;2022-12-07T12:23:34;101302.09;;;5.73;89.63
71504;BME280;59323;50.874;7.028;2022-12-07T12:26:06;101280.06;;;5.62;90.08
71504;BME280;59323;50.874;7.028;2022-12-07T12:28:40;101278.00;;;5.59;90.14
71504;BME280;59323;50.874;7.028;2022-12-07T12:33:48;101289.25;;;5.61;91.14
71504;BME280;59323;50.874;7.028;2022-12-07T12:39:08;101286.56;;;5.61;90.75
71504;BME280;59323;50.874;7.028;2022-12-07T12:44:02;101276.09;;;5.51;92.28
71504;BME280;59323;50.874;7.028;2022-12-07T12:46:38;101279.56;;;5.60;91.77
71504;BME280;59323;50.874;7.028;2022-12-07T12:51:43;101282.75;;;5.71;91.18
71504;BME280;59323;50.874;7.028;2022-12-07T12:54:18;101257.22;;;5.60;92.71
71504;BME280;59323;50.874;7.028;2022-12-07T13:00:02;101264.66;;;5.63;90.76
71504;BME280;59323;50.874;7.028;2022-12-07T13:02:37;101276.25;;;5.63;92.85
71504;BME280;59323;50.874;7.028;2022-12-07T13:15:46;101262.78;;;5.55;91.29
71504;BME280;59323;50.874;7.028;2022-12-07T13:26:36;101253.56;;;5.38;92.78
71504;BME280;59323;50.874;7.028;2022-12-07T13:29:14;101259.91;;;5.43;92.84
71504;BME280;59323;50.874;7.028;2022-12-07T13:34:30;101260.38;;;5.45;93.09
71504;BME280;59323;50.874;7.028;2022-12-07T13:36:58;101247.53;;;5.41;92.35
71504;BME280;59323;50.874;7.028;2022-12-07T13:39:26;101239.78;;;5.40;92.72
71504;BME280;59323;50.874;7.028;2022-12-07T13:41:56;101236.94;;;5.36;93.64
71504;BME280;59323;50.874;7.028;2022-12-07T13:44:24;101233.75;;;5.34;92.89
71504;BME280;59323;50.874;7.028;2022-12-07T13:46:59;101230.41;;;5.29;93.86
71504;BME280;59323;50.874;7.028;2022-12-07T13:49:29;101241.03;;;5.34;95.14
71504;BME280;59323;50.874;7.028;2022-12-07T13:52:28;101233.13;;;5.29;95.79
71504;BME280;59323;50.874;7.028;2022-12-07T13:55:13;101231.22;;;5.29;96.29
71504;BME280;59323;50.874;7.028;2022-12-07T13:57:40;101224.56;;;5.27;95.72
71504;BME280;59323;50.874;7.028;2022-12-07T14:00:15;101213.31;;;5.33;94.60
71504;BME280;59323;50.874;7.028;2022-12-07T14:03:01;101223.13;;;5.38;95.12
71504;BME280;59323;50.874;7.028;2022-12-07T14:05:30;101221.38;;;5.33;95.71
71504;BME280;59323;50.874;7.028;2022-12-07T14:08:02;101214.41;;;5.32;95.05
71504;BME280;59323;50.874;7.028;2022-12-07T14:11:12;101216.47;;;5.35;94.42
71504;BME280;59323;50.874;7.028;2022-12-07T14:13:37;101220.44;;;5.38;94.72
71504;BME280;59323;50.874;7.028;2022-12-07T14:18:47;101205.22;;;5.33;93.73
71504;BME280;59323;50.874;7.028;2022-12-07T14:21:23;101213.31;;;5.33;94.18
71504;BME280;59323;50.874;7.028;2022-12-07T14:24:16;101216.94;;;5.46;92.19
71504;BME280;59323;50.874;7.028;2022-12-07T14:26:43;101202.69;;;5.37;92.72
71504;BME280;59323;50.874;7.028;2022-12-07T14:29:30;101195.25;;;5.34;91.95
71504;BME280;59323;50.874;7.028;2022-12-07T14:31:57;101213.94;;;5.39;92.93
71504;BME280;59323;50.874;7.028;2022-12-07T14:34:24;101198.72;;;5.26;93.66
71504;BME280;59323;50.874;7.028;2022-12-07T14:36:50;101197.31;;;5.28;92.84
71504;BME280;59323;50.874;7.028;2022-12-07T14:39:16;101198.09;;;5.29;92.52
71504;BME280;59323;50.874;7.028;2022-12-07T14:41:42;101193.97;;;5.23;93.38
71504;BME280;59323;50.874;7.028;2022-12-07T14:44:20;101189.81;;;5.17;94.45
71504;BME280;59323;50.874;7.028;2022-12-07T14:46:47;101185.06;;;5.14;94.27
71504;BME280;59323;50.874;7.028;2022-12-07T14:49:12;101188.06;;;5.12;95.04
71504;BME280;59323;50.874;7.028;2022-12-07T14:51:39;101176.66;;;5.06;95.36
71504;BME280;59323;50.874;7.028;2022-12-07T14:54:07;101174.75;;;5.07;96.01
71504;BME280;59323;50.874;7.028;2022-12-07T14:56:38;101188.72;;;5.09;95.47
71504;BME280;59323;50.874;7.028;2022-12-07T14:59:03;101179.34;;;5.06;96.24
71504;BME280;59323;50.874;7.028;2022-12-07T15:01:28;101163.66;;;5.00;96.90
71504;BME280;59323;50.874;7.028;2022-12-07T15:03:54;101161.44;;;4.93;96.94
71504;BME280;59323;50.874;7.028;2022-12-07T15:06:19;101171.28;;;4.98;98.04
71504;BME280;59323;50.874;7.028;2022-12-07T15:08:45;101167.94;;;4.92;97.87
71504;BME280;59323;50.874;7.028;2022-12-07T15:11:13;101160.19;;;4.91;97.88
71504;BME280;59323;50.874;7.028;2022-12-07T15:13:39;101165.56;;;4.91;98.91
71504;BME280;59323;50.874;7.028;2022-12-07T15:16:23;101165.72;;;4.94;98.53
71504;BME280;59323;50.874;7.028;2022-12-07T15:18:49;101163.19;;;4.89;98.32
71504;BME280;59323;50.874;7.028;2022-12-07T15:21:15;101160.66;;;4.93;98.09